Time;durP1;ratioP1;P1;durP2;ratioP2;P2;SDS_P1;SDS_P2;PMS_P1;PMS_P2;Temp;Humidity;BMP_temperature;BMP_pressure;BME280_temperature;BME280_humidity;BME280_pressure;Samples;Min_cycle;Max_cycle;Signal;HPM_P1;HPM_P2
2023/01/01 00:00:42;;;;;;;32.38;19.85;;;16.50;62.90;;;;;;5026064;28;20034;-67
2023/01/01 00:03:08;;;;;;;24.73;15.05;;;16.60;63.00;;;;;;5025247;28;20479;-66
2023/01/01 00:05:37;;;;;;;21.13;13.88;;;16.50;62.90;;;;;;5023661;28;20029;-67
2023/01/01 00:08:03;;;;;;;20.70;13.00;;;16.60;62.90;;;;;;5025531;28;20440;-67
2023/01/01 00:10:29;;;;;;;22.17;13.27;;;16.50;62.60;;;;;;5025489;28;20065;-66
2023/01/01 00:12:58;;;;;;;20.77;12.38;;;16.50;62.60;;;;;;5023718;28;20395;-66
2023/01/01 00:15:25;;;;;;;20.30;12.02;;;16.50;62.40;;;;;;5023219;28;20033;-65
2023/01/01 00:17:51;;;;;;;17.48;10.57;;;16.50;62.20;;;;;;5024233;28;20034;-66
2023/01/01 00:20:17;;;;;;;16.40;9.90;;;16.60;62.10;;;;;;5025123;28;20392;-66
2023/01/01 00:22:43;;;;;;;16.20;9.60;;;16.60;62.40;;;;;;5023979;28;20071;-65
2023/01/01 00:25:13;;;;;;;13.75;8.23;;;16.50;62.60;;;;;;5025177;28;20076;-66
2023/01/01 00:27:39;;;;;;;16.92;9.60;;;16.50;62.50;;;;;;5019504;28;20468;-66
2023/01/01 00:30:05;;;;;;;14.05;8.63;;;16.60;62.40;;;;;;5022845;28;20041;-66
2023/01/01 00:32:31;;;;;;;14.45;8.38;;;16.50;62.50;;;;;;5019974;28;20516;-65
2023/01/01 00:34:56;;;;;;;14.35;7.72;;;16.60;62.60;;;;;;5023090;28;20028;-66
2023/01/01 00:37:22;;;;;;;14.55;7.45;;;16.60;62.70;;;;;;5024864;28;20029;-67
2023/01/01 00:39:47;;;;;;;11.50;6.65;;;16.60;62.60;;;;;;5024176;28;20029;-66
2023/01/01 00:42:13;;;;;;;13.57;6.28;;;16.60;62.70;;;;;;5022844;28;20052;-66
2023/01/01 00:44:39;;;;;;;12.95;6.10;;;16.50;62.70;;;;;;5024386;28;20053;-67
2023/01/01 00:47:04;;;;;;;10.57;5.72;;;16.50;62.70;;;;;;5024094;28;20069;-66
2023/01/01 00:49:30;;;;;;;14.10;6.13;;;16.50;63.00;;;;;;5024771;28;20026;-66
2023/01/01 00:51:55;;;;;;;12.00;5.60;;;16.50;63.40;;;;;;5020696;28;20033;-66
2023/01/01 00:54:21;;;;;;;10.65;5.70;;;16.50;63.70;;;;;;5021951;28;20029;-67
2023/01/01 00:56:46;;;;;;;11.93;4.97;;;16.50;64.50;;;;;;5021463;28;20026;-66
2023/01/01 00:59:12;;;;;;;11.38;4.97;;;16.40;63.60;;;;;;5024200;28;20079;-67
2023/01/01 01:01:39;;;;;;;11.93;5.30;;;16.40;63.80;;;;;;5023322;28;20153;-66
2023/01/01 01:04:05;;;;;;;13.10;4.93;;;16.40;64.10;;;;;;5023134;28;20029;-66
2023/01/01 01:06:30;;;;;;;13.60;5.20;;;16.30;64.40;;;;;;5026616;28;20059;-66
2023/01/01 01:08:56;;;;;;;12.68;6.60;;;16.40;64.70;;;;;;5027550;28;20040;-66
2023/01/01 01:11:24;;;;;;;10.57;4.90;;;16.30;64.90;;;;;;5043116;28;20021;-67
2023/01/01 01:13:55;;;;;;;10.18;4.90;;;16.30;65.30;;;;;;5029621;28;20037;-66
2023/01/01 01:16:29;;;;;;;12.40;5.07;;;16.20;65.30;;;;;;5026109;28;20056;-67
2023/01/01 01:18:58;;;;;;;8.18;3.90;;;16.20;65.30;;;;;;5019895;28;20038;-66
2023/01/01 01:21:26;;;;;;;9.68;3.78;;;16.20;65.40;;;;;;5021110;28;20029;-67
2023/01/01 01:23:53;;;;;;;8.02;3.35;;;16.20;65.30;;;;;;5025226;28;20045;-67
2023/01/01 01:26:21;;;;;;;8.57;3.33;;;16.20;65.10;;;;;;5024967;28;20421;-67
2023/01/01 01:28:47;;;;;;;12.30;5.72;;;16.20;65.20;;;;;;5024772;28;20030;-67
2023/01/01 01:31:13;;;;;;;8.88;3.53;;;16.20;64.60;;;;;;5023129;28;20132;-65
2023/01/01 01:33:39;;;;;;;7.13;2.95;;;16.10;64.70;;;;;;5024203;28;20026;-66
2023/01/01 01:36:05;;;;;;;6.45;2.55;;;16.10;64.70;;;;;;5026543;28;20061;-66
2023/01/01 01:38:31;;;;;;;5.72;2.80;;;16.10;65.00;;;;;;5025618;28;20087;-66
2023/01/01 01:40:57;;;;;;;9.52;3.10;;;16.10;64.90;;;;;;5021466;28;20572;-66
2023/01/01 01:43:48;;;;;;;10.52;3.05;;;16.10;65.00;;;;;;5025562;28;20505;-66
2023/01/01 01:46:38;;;;;;;9.88;2.65;;;16.10;64.90;;;;;;5024229;28;20097;-66
2023/01/01 01:49:13;;;;;;;7.25;2.70;;;16.00;64.70;;;;;;5022239;28;20034;-66
2023/01/01 01:51:39;;;;;;;11.13;2.75;;;16.00;64.80;;;;;;5026564;28;20104;-66
2023/01/01 01:54:13;;;;;;;8.13;2.72;;;16.00;64.90;;;;;;5031263;28;20100;-66
2023/01/01 01:56:51;;;;;;;5.53;2.33;;;16.00;64.90;;;;;;5031359;28;20545;-66
2023/01/01 01:59:18;;;;;;;5.70;2.63;;;16.00;64.80;;;;;;5031202;28;20375;-66
2023/01/01 02:01:44;;;;;;;7.13;2.80;;;16.00;64.90;;;;;;5030922;28;20052;-66
2023/01/01 02:04:10;;;;;;;7.35;2.50;;;16.00;64.90;;;;;;5017135;28;20070;-66
2023/01/01 02:06:38;;;;;;;9.05;3.72;;;16.00;64.80;;;;;;5014364;28;20112;-65
2023/01/01 02:09:05;;;;;;;6.70;2.90;;;16.00;64.70;;;;;;5017655;28;20026;-66
2023/01/01 02:11:31;;;;;;;7.57;2.42;;;16.00;64.50;;;;;;5025420;28;20029;-66
2023/01/01 02:13:57;;;;;;;7.10;2.30;;;16.00;64.40;;;;;;5022722;28;20026;-66
2023/01/01 02:16:46;;;;;;;4.63;2.25;;;16.00;64.00;;;;;;5027213;28;20396;-65
2023/01/01 02:19:28;;;;;;;7.35;2.30;;;16.00;64.00;;;;;;5029751;28;20059;-66
2023/01/01 02:22:18;;;;;;;5.80;2.50;;;16.00;64.80;;;;;;5011377;28;20030;-65
2023/01/01 02:25:09;;;;;;;5.10;2.30;;;16.00;64.20;;;;;;5013619;28;20025;-66
2023/01/01 02:27:46;;;;;;;4.93;2.03;;;16.00;64.30;;;;;;5013253;28;20051;-66
2023/01/01 02:30:12;;;;;;;8.23;2.78;;;16.00;64.30;;;;;;5032841;28;20404;-66
2023/01/01 02:32:44;;;;;;;6.15;2.20;;;16.00;64.40;;;;;;5022755;28;20033;-65
2023/01/01 02:35:33;;;;;;;5.45;2.17;;;16.00;64.50;;;;;;5021895;28;20033;-66
2023/01/01 02:38:04;;;;;;;6.43;2.22;;;15.90;64.30;;;;;;5019360;28;20198;-67
2023/01/01 02:40:30;;;;;;;9.77;2.15;;;15.90;63.90;;;;;;5024474;28;20033;-67
2023/01/01 02:42:57;;;;;;;5.13;2.25;;;15.90;63.70;;;;;;5029423;28;20560;-67
2023/01/01 02:45:23;;;;;;;6.57;2.42;;;15.90;63.90;;;;;;5028893;28;20440;-67
2023/01/01 02:47:48;;;;;;;7.15;2.33;;;15.90;63.70;;;;;;5028899;28;20113;-67
2023/01/01 02:50:19;;;;;;;9.52;2.50;;;15.90;63.50;;;;;;5023831;28;20488;-67
2023/01/01 02:53:02;;;;;;;6.57;2.30;;;15.90;63.00;;;;;;5018639;28;20045;-67
2023/01/01 02:55:51;;;;;;;7.70;2.53;;;16.00;63.30;;;;;;5011194;28;20109;-67
2023/01/01 03:01:37;;;;;;;7.20;2.20;;;16.00;62.90;;;;;;5027178;28;20052;-66
2023/01/01 03:04:42;;;;;;;6.85;2.17;;;15.90;62.60;;;;;;5019494;28;20025;-66
2023/01/01 03:07:17;;;;;;;4.50;1.98;;;16.00;62.80;;;;;;5020189;28;20038;-66
2023/01/01 03:10:14;;;;;;;4.90;1.90;;;16.00;62.70;;;;;;5022641;28;20022;-67
2023/01/01 03:12:56;;;;;;;5.80;2.25;;;16.00;62.50;;;;;;5022239;28;20690;-67
2023/01/01 03:15:37;;;;;;;4.20;1.75;;;16.00;62.50;;;;;;5020386;28;20036;-67
2023/01/01 03:18:24;;;;;;;6.38;2.20;;;15.90;62.30;;;;;;5022772;28;20121;-67
2023/01/01 03:20:53;;;;;;;9.55;2.47;;;16.00;61.90;;;;;;5025204;28;20113;-67
2023/01/01 03:23:24;;;;;;;5.13;2.00;;;15.90;61.90;;;;;;5027248;28;20045;-67
2023/01/01 03:25:54;;;;;;;4.93;1.90;;;16.00;62.10;;;;;;5020947;28;20037;-67
2023/01/01 03:28:28;;;;;;;8.30;2.10;;;16.00;62.20;;;;;;5017844;28;20018;-66
2023/01/01 03:30:55;;;;;;;5.10;2.20;;;16.00;62.10;;;;;;5025998;28;20442;-67
2023/01/01 03:33:24;;;;;;;5.60;2.08;;;16.00;62.00;;;;;;5024414;28;20030;-67
2023/01/01 03:35:55;;;;;;;8.30;2.15;;;16.00;62.10;;;;;;5025219;28;20037;-66
2023/01/01 03:38:34;;;;;;;5.03;2.00;;;16.00;62.10;;;;;;5019943;28;20040;-66
2023/01/01 03:41:19;;;;;;;4.55;1.83;;;15.90;61.90;;;;;;5018781;28;20034;-65
2023/01/01 03:44:01;;;;;;;4.53;1.50;;;15.90;62.00;;;;;;5023734;28;20024;-66
2023/01/01 03:46:31;;;;;;;7.25;2.20;;;15.90;62.20;;;;;;5012191;28;20519;-66
2023/01/01 03:48:59;;;;;;;6.60;2.38;;;15.90;61.80;;;;;;5012611;28;20037;-66
2023/01/01 03:51:27;;;;;;;4.18;1.90;;;15.90;61.90;;;;;;5013233;28;20026;-66
2023/01/01 03:53:58;;;;;;;3.53;1.50;;;15.90;62.00;;;;;;5010299;28;20030;-66
2023/01/01 03:56:38;;;;;;;3.95;1.83;;;15.90;62.30;;;;;;5017841;28;20032;-66
2023/01/01 03:59:29;;;;;;;4.13;1.75;;;15.90;62.30;;;;;;5026763;28;20073;-65
2023/01/01 04:01:57;;;;;;;4.07;2.00;;;15.90;62.50;;;;;;5019929;28;20026;-66
2023/01/01 04:04:25;;;;;;;3.60;1.80;;;15.90;62.20;;;;;;5015594;28;20025;-66
2023/01/01 04:06:51;;;;;;;4.28;1.75;;;15.80;62.30;;;;;;5009679;28;20030;-66
2023/01/01 04:09:22;;;;;;;5.57;1.90;;;15.80;62.40;;;;;;5019080;28;20065;-66
2023/01/01 04:12:00;;;;;;;5.22;1.98;;;15.80;62.10;;;;;;5024433;28;20034;-65
2023/01/01 04:14:37;;;;;;;6.28;2.10;;;15.80;62.00;;;;;;5025499;28;20049;-65
2023/01/01 04:17:04;;;;;;;4.97;2.17;;;15.80;62.00;;;;;;5028940;28;20061;-65
2023/01/01 04:19:30;;;;;;;4.28;1.70;;;15.80;61.80;;;;;;5028867;28;20033;-65
2023/01/01 04:21:56;;;;;;;4.80;2.08;;;15.80;62.10;;;;;;5025692;28;20032;-65
2023/01/01 04:24:22;;;;;;;4.28;1.80;;;15.80;62.20;;;;;;5029087;28;20022;-65
2023/01/01 04:26:49;;;;;;;5.18;1.98;;;15.80;62.50;;;;;;5024999;28;20036;-64
2023/01/01 04:29:15;;;;;;;6.65;1.80;;;15.80;62.50;;;;;;5027233;28;20032;-65
2023/01/01 04:31:41;;;;;;;5.38;2.03;;;15.80;62.50;;;;;;5025390;28;20026;-65
2023/01/01 04:34:06;;;;;;;5.65;1.75;;;15.80;62.60;;;;;;5028385;28;20030;-66
2023/01/01 04:36:32;;;;;;;3.40;1.77;;;15.80;62.50;;;;;;5027312;28;20021;-65
2023/01/01 04:38:58;;;;;;;5.35;1.80;;;15.80;62.60;;;;;;5027373;28;20094;-65
2023/01/01 04:41:23;;;;;;;6.38;1.75;;;15.70;62.70;;;;;;5031786;28;20025;-68
2023/01/01 04:43:49;;;;;;;6.07;1.55;;;15.70;62.80;;;;;;5032590;28;20025;-66
2023/01/01 04:46:16;;;;;;;4.47;1.67;;;15.70;63.10;;;;;;5033011;28;20501;-66
2023/01/01 04:48:41;;;;;;;4.63;1.63;;;15.70;63.20;;;;;;5032612;28;20021;-65
2023/01/01 04:51:09;;;;;;;4.70;1.70;;;15.80;63.40;;;;;;5031070;28;20411;-65
2023/01/01 04:53:35;;;;;;;5.38;1.70;;;15.70;63.50;;;;;;5032165;28;20400;-65
2023/01/01 04:56:05;;;;;;;5.90;1.95;;;15.70;63.60;;;;;;5031212;28;20029;-64
2023/01/01 04:58:32;;;;;;;6.22;2.05;;;15.70;63.50;;;;;;5030691;28;20109;-65
2023/01/01 05:00:58;;;;;;;5.93;1.80;;;15.70;63.80;;;;;;5031202;28;20436;-65
2023/01/01 05:03:23;;;;;;;6.70;2.20;;;15.70;64.00;;;;;;5028537;28;20060;-65
2023/01/01 05:06:07;;;;;;;6.30;1.83;;;15.70;64.10;;;;;;5031459;28;20100;-66
2023/01/01 05:08:35;;;;;;;6.72;2.05;;;15.60;64.10;;;;;;5029993;28;20017;-67
2023/01/01 05:11:08;;;;;;;3.88;1.60;;;15.60;64.20;;;;;;5031570;28;20489;-65
2023/01/01 05:13:39;;;;;;;4.38;1.85;;;15.60;64.40;;;;;;5029627;28;20029;-66
2023/01/01 05:16:07;;;;;;;6.97;2.00;;;15.60;64.60;;;;;;5030906;28;20380;-65
2023/01/01 05:18:34;;;;;;;6.40;1.83;;;15.60;65.00;;;;;;5030305;28;20083;-64
2023/01/01 05:21:05;;;;;;;5.25;1.92;;;15.60;64.80;;;;;;5031576;28;20033;-65
2023/01/01 05:23:31;;;;;;;5.95;1.63;;;15.60;64.80;;;;;;5032636;28;20447;-64
2023/01/01 05:25:57;;;;;;;5.13;1.60;;;15.60;65.00;;;;;;5031859;28;20049;-65
2023/01/01 05:28:23;;;;;;;5.22;1.73;;;15.60;65.00;;;;;;5029960;28;20082;-65
2023/01/01 05:30:49;;;;;;;3.97;1.75;;;15.60;65.70;;;;;;5031368;28;20446;-65
2023/01/01 05:33:15;;;;;;;5.13;1.70;;;15.60;65.20;;;;;;5032086;28;20128;-65
2023/01/01 05:35:41;;;;;;;6.07;1.77;;;15.60;65.50;;;;;;5031353;28;20044;-65
2023/01/01 05:38:06;;;;;;;6.90;2.35;;;15.60;65.60;;;;;;5029613;28;20579;-65
2023/01/01 05:40:32;;;;;;;5.10;2.20;;;15.50;65.60;;;;;;5031559;28;20025;-66
2023/01/01 05:42:57;;;;;;;7.30;2.33;;;15.50;65.70;;;;;;5031856;28;20056;-65
2023/01/01 05:45:23;;;;;;;5.05;1.60;;;15.50;65.80;;;;;;5030559;28;20013;-65
2023/01/01 05:47:48;;;;;;;6.10;1.80;;;15.40;65.80;;;;;;5030036;28;20109;-66
2023/01/01 05:50:14;;;;;;;3.67;1.50;;;15.40;65.60;;;;;;5031462;28;20406;-65
2023/01/01 05:52:40;;;;;;;4.25;1.65;;;15.40;64.60;;;;;;5030584;28;20387;-66
2023/01/01 05:55:05;;;;;;;2.80;1.70;;;15.40;64.20;;;;;;5031857;28;20392;-65
2023/01/01 05:57:31;;;;;;;4.82;1.60;;;15.40;63.90;;;;;;5028390;28;20040;-66
2023/01/01 05:59:57;;;;;;;5.47;1.60;;;15.40;63.80;;;;;;5031337;28;20034;-66
2023/01/01 06:02:23;;;;;;;4.07;1.42;;;15.30;64.00;;;;;;5031036;28;20033;-66
2023/01/01 06:04:48;;;;;;;4.30;1.63;;;15.30;64.40;;;;;;5031606;28;20018;-66
2023/01/01 06:07:14;;;;;;;4.18;1.73;;;15.30;64.70;;;;;;5030932;28;20400;-66
2023/01/01 06:09:39;;;;;;;5.65;2.00;;;15.30;65.10;;;;;;5031168;28;20587;-65
2023/01/01 06:12:05;;;;;;;4.50;1.58;;;15.20;65.20;;;;;;5030057;28;20029;-66
2023/01/01 06:14:31;;;;;;;4.60;1.60;;;15.20;65.10;;;;;;5031365;28;20034;-65
2023/01/01 06:16:56;;;;;;;3.53;1.60;;;15.20;64.50;;;;;;5031042;28;20044;-66
2023/01/01 06:19:22;;;;;;;4.88;1.67;;;15.20;64.40;;;;;;5030929;28;20029;-65
2023/01/01 06:21:47;;;;;;;4.75;1.48;;;15.20;64.30;;;;;;5029777;28;20053;-65
2023/01/01 06:24:13;;;;;;;3.15;1.40;;;15.10;64.00;;;;;;5031219;28;20025;-65
2023/01/01 06:26:39;;;;;;;4.97;1.30;;;15.10;63.40;;;;;;5028973;28;20037;-66
2023/01/01 06:29:04;;;;;;;4.00;1.38;;;15.10;63.20;;;;;;5030446;28;20091;-67
2023/01/01 06:31:30;;;;;;;4.38;1.40;;;15.10;63.40;;;;;;5030028;28;20442;-66
2023/01/01 06:33:56;;;;;;;3.10;1.33;;;15.10;63.60;;;;;;5029464;28;20112;-66
2023/01/01 06:36:24;;;;;;;5.32;1.38;;;15.00;63.80;;;;;;5030383;28;20026;-66
2023/01/01 06:38:53;;;;;;;4.80;1.20;;;15.00;64.10;;;;;;5026439;28;20108;-65
2023/01/01 06:41:22;;;;;;;3.60;1.60;;;15.00;64.60;;;;;;5028606;28;20021;-66
2023/01/01 06:43:48;;;;;;;3.95;1.30;;;15.00;65.00;;;;;;5026581;28;20025;-66
2023/01/01 06:46:20;;;;;;;3.25;1.50;;;14.90;65.40;;;;;;5029724;28;20075;-65
2023/01/01 06:48:54;;;;;;;6.30;1.50;;;14.90;65.80;;;;;;5025610;28;20084;-66
2023/01/01 06:51:25;;;;;;;2.58;1.30;;;14.80;66.10;;;;;;5028702;28;20021;-66
2023/01/01 06:53:52;;;;;;;5.05;1.58;;;14.80;66.30;;;;;;5027877;28;20515;-66
2023/01/01 06:56:18;;;;;;;3.55;1.52;;;14.80;66.30;;;;;;5028914;28;20056;-66
2023/01/01 06:58:43;;;;;;;3.90;1.65;;;14.80;66.50;;;;;;5028883;28;20049;-66
2023/01/01 07:01:16;;;;;;;3.63;1.58;;;14.80;66.70;;;;;;5029710;28;20056;-66
2023/01/01 07:03:43;;;;;;;6.10;1.55;;;14.70;66.80;;;;;;5028656;28;20021;-65
2023/01/01 07:06:09;;;;;;;3.60;1.40;;;14.70;66.90;;;;;;5030072;28;20173;-65
2023/01/01 07:08:35;;;;;;;3.88;1.45;;;14.70;67.10;;;;;;5028246;28;21793;-65
2023/01/01 07:11:01;;;;;;;3.78;1.48;;;14.70;67.30;;;;;;5025888;28;20117;-66
2023/01/01 07:13:28;;;;;;;4.70;1.27;;;14.60;67.30;;;;;;5028473;28;20021;-65
2023/01/01 07:15:54;;;;;;;2.92;1.35;;;14.60;67.40;;;;;;5029879;28;20030;-66
2023/01/01 07:18:22;;;;;;;3.30;1.02;;;14.50;67.20;;;;;;5027620;28;20039;-65
2023/01/01 07:20:54;;;;;;;3.70;1.30;;;14.40;67.00;;;;;;5023947;28;20603;-65
2023/01/01 07:23:20;;;;;;;1.45;0.98;;;14.30;66.70;;;;;;5025336;28;20065;-65
2023/01/01 07:25:48;;;;;;;3.20;0.82;;;14.30;66.70;;;;;;5024658;28;20048;-66
2023/01/01 07:28:13;;;;;;;2.63;1.00;;;14.10;66.70;;;;;;5025032;28;20013;-65
2023/01/01 07:30:39;;;;;;;2.50;0.88;;;14.10;67.00;;;;;;5028843;28;20033;-66
2023/01/01 07:33:05;;;;;;;2.75;1.05;;;14.00;67.30;;;;;;5029007;28;20583;-66
2023/01/01 07:35:30;;;;;;;3.80;1.08;;;14.00;67.80;;;;;;5028545;28;20112;-64
2023/01/01 07:37:56;;;;;;;2.20;0.93;;;13.80;68.20;;;;;;5029394;28;20029;-65
2023/01/01 07:40:21;;;;;;;3.38;1.10;;;13.80;68.70;;;;;;5025787;28;20380;-65
2023/01/01 07:42:47;;;;;;;2.35;1.15;;;13.70;69.00;;;;;;5029365;28;20037;-65
2023/01/01 07:45:13;;;;;;;3.80;1.00;;;13.60;69.40;;;;;;5029183;28;20029;-65
2023/01/01 07:47:38;;;;;;;2.80;0.90;;;13.50;69.60;;;;;;5028937;28;20028;-66
2023/01/01 07:50:04;;;;;;;2.60;1.10;;;13.50;70.00;;;;;;5028770;28;20419;-66
2023/01/01 07:52:30;;;;;;;2.28;1.02;;;13.40;70.10;;;;;;5027657;28;20495;-66
2023/01/01 07:54:55;;;;;;;2.70;1.00;;;13.40;70.40;;;;;;5027605;28;20029;-66
2023/01/01 07:57:21;;;;;;;3.10;1.20;;;13.30;70.50;;;;;;5028929;28;20041;-66
2023/01/01 07:59:46;;;;;;;2.50;0.88;;;13.30;70.70;;;;;;5029167;28;20033;-66
2023/01/01 08:02:12;;;;;;;1.50;0.93;;;13.30;70.80;;;;;;5028768;28;20500;-65
2023/01/01 08:04:38;;;;;;;3.75;1.00;;;13.30;70.90;;;;;;5029246;28;20075;-66
2023/01/01 08:07:04;;;;;;;4.00;1.10;;;13.20;71.10;;;;;;5029342;28;20107;-66
2023/01/01 08:09:29;;;;;;;1.73;0.70;;;13.20;71.30;;;;;;5028686;28;20069;-66
2023/01/01 08:11:57;;;;;;;3.00;0.98;;;13.20;71.50;;;;;;5023892;28;20021;-66
2023/01/01 08:14:24;;;;;;;2.65;0.90;;;13.20;71.50;;;;;;5027732;28;20084;-66
2023/01/01 08:16:50;;;;;;;2.42;1.00;;;13.20;71.60;;;;;;5028364;28;20033;-67
2023/01/01 08:19:15;;;;;;;3.33;1.00;;;13.20;71.80;;;;;;5017394;28;20034;-67
2023/01/01 08:21:41;;;;;;;2.53;1.00;;;13.20;71.80;;;;;;5023062;28;20473;-66
2023/01/01 08:24:07;;;;;;;3.25;1.15;;;13.20;71.80;;;;;;5019703;28;20022;-66
2023/01/01 08:26:34;;;;;;;3.17;0.82;;;13.20;72.00;;;;;;5027602;28;20432;-66
2023/01/01 08:29:04;;;;;;;2.60;0.90;;;13.20;72.10;;;;;;5030372;28;20120;-66
2023/01/01 08:31:30;;;;;;;4.38;1.30;;;13.10;72.10;;;;;;5026654;28;20032;-65
2023/01/01 08:33:56;;;;;;;2.30;0.98;;;13.20;72.20;;;;;;5021293;28;20056;-65
2023/01/01 08:36:22;;;;;;;4.03;1.30;;;13.20;72.40;;;;;;5021236;28;20040;-65
2023/01/01 08:38:47;;;;;;;4.03;1.10;;;13.10;72.40;;;;;;5029112;28;20110;-66
2023/01/01 08:41:13;;;;;;;4.78;1.38;;;13.20;73.10;;;;;;5025698;28;20025;-66
2023/01/01 08:43:38;;;;;;;5.05;1.23;;;13.10;73.00;;;;;;5029177;28;20036;-66
2023/01/01 08:46:04;;;;;;;3.67;1.15;;;13.10;72.50;;;;;;5020332;28;20026;-66
2023/01/01 08:48:30;;;;;;;3.28;1.00;;;13.10;72.50;;;;;;5030963;28;20029;-66
2023/01/01 08:51:00;;;;;;;3.83;1.20;;;13.10;72.60;;;;;;5025764;28;20065;-66
2023/01/01 08:53:27;;;;;;;4.93;1.25;;;13.10;72.50;;;;;;5023602;28;20033;-67
2023/01/01 08:56:04;;;;;;;4.75;1.40;;;13.10;73.10;;;;;;5023607;28;20037;-66
2023/01/01 08:58:30;;;;;;;3.38;1.17;;;13.10;72.50;;;;;;5030099;28;20410;-66
2023/01/01 09:00:56;;;;;;;3.00;1.00;;;13.10;72.60;;;;;;5029930;28;20247;-66
2023/01/01 09:03:22;;;;;;;3.08;1.10;;;13.20;72.60;;;;;;5030974;28;20025;-66
2023/01/01 09:05:47;;;;;;;4.18;1.20;;;13.20;72.60;;;;;;5021585;28;20080;-66
2023/01/01 09:08:16;;;;;;;3.33;1.17;;;13.20;72.70;;;;;;5030804;28;20028;-65
2023/01/01 09:10:42;;;;;;;4.10;1.02;;;13.20;72.90;;;;;;5027900;28;20116;-66
2023/01/01 09:13:09;;;;;;;5.55;1.30;;;13.20;72.90;;;;;;5029388;28;20029;-65
2023/01/01 09:15:34;;;;;;;3.17;1.10;;;13.20;73.00;;;;;;5029388;28;20033;-65
2023/01/01 09:18:00;;;;;;;7.10;1.67;;;13.30;73.10;;;;;;5030072;28;20049;-66
2023/01/01 09:20:25;;;;;;;3.60;1.30;;;13.30;73.00;;;;;;5031638;28;20033;-64
2023/01/01 09:22:51;;;;;;;3.90;1.20;;;13.30;73.10;;;;;;5031071;28;20033;-65
2023/01/01 09:25:17;;;;;;;3.28;1.20;;;13.30;73.10;;;;;;5031343;28;20037;-66
2023/01/01 09:27:42;;;;;;;3.97;1.20;;;13.30;73.30;;;;;;5030956;28;20480;-66
2023/01/01 09:30:08;;;;;;;4.63;1.27;;;13.40;73.60;;;;;;5030111;28;20029;-65
2023/01/01 09:32:34;;;;;;;3.28;1.10;;;13.30;73.80;;;;;;5027934;28;20051;-65
2023/01/01 09:35:00;;;;;;;3.78;1.33;;;13.30;74.00;;;;;;5026811;28;20030;-66
2023/01/01 09:37:26;;;;;;;4.93;1.50;;;13.30;74.30;;;;;;5022190;28;20037;-67
2023/01/01 09:39:51;;;;;;;4.80;1.50;;;13.30;74.60;;;;;;5022811;28;20688;-67
2023/01/01 09:42:41;;;;;;;4.60;1.55;;;13.30;74.90;;;;;;5025246;28;20026;-67
2023/01/01 09:45:15;;;;;;;4.65;1.30;;;13.30;75.10;;;;;;5029585;28;20075;-67
2023/01/01 09:47:53;;;;;;;3.38;1.30;;;13.30;75.40;;;;;;5030600;28;20025;-67
2023/01/01 09:50:26;;;;;;;5.97;1.40;;;13.20;75.50;;;;;;5023173;28;20025;-66
2023/01/01 09:52:56;;;;;;;3.60;1.25;;;13.30;75.90;;;;;;5022805;28;20112;-66
2023/01/01 09:55:32;;;;;;;4.15;1.30;;;13.30;76.10;;;;;;5022073;28;20503;-66
2023/01/01 09:57:58;;;;;;;4.18;1.38;;;13.30;76.20;;;;;;5030889;28;20022;-67
2023/01/01 10:00:25;;;;;;;7.53;1.67;;;13.30;76.30;;;;;;5027919;28;20038;-66
2023/01/01 10:03:14;;;;;;;4.05;1.40;;;13.30;76.50;;;;;;5028137;28;20067;-67
2023/01/01 10:05:56;;;;;;;4.50;1.67;;;13.40;76.60;;;;;;5030731;28;20116;-66
2023/01/01 10:08:27;;;;;;;5.60;1.43;;;13.40;76.50;;;;;;5021405;28;20032;-66
2023/01/01 10:11:11;;;;;;;7.63;1.63;;;13.40;76.80;;;;;;5029326;28;20284;-67
2023/01/01 10:13:41;;;;;;;3.47;1.20;;;13.40;76.90;;;;;;5024234;28;20030;-67
2023/01/01 10:16:12;;;;;;;5.85;1.70;;;13.40;77.10;;;;;;5028932;28;20041;-67
2023/01/01 10:18:39;;;;;;;5.25;1.60;;;13.40;77.40;;;;;;5030756;28;20037;-68
2023/01/01 10:21:23;;;;;;;6.85;1.40;;;13.40;77.60;;;;;;5030604;28;20030;-67
2023/01/01 10:23:55;;;;;;;8.60;2.00;;;13.50;77.80;;;;;;5030289;28;20017;-66
2023/01/01 10:26:24;;;;;;;5.72;2.28;;;13.40;78.40;;;;;;5042915;28;20578;-65
2023/01/01 10:29:08;;;;;;;4.05;1.58;;;13.40;78.50;;;;;;5029426;28;20158;-66
2023/01/01 10:31:37;;;;;;;4.40;1.90;;;13.40;78.70;;;;;;5030820;28;20018;-66
2023/01/01 10:34:24;;;;;;;5.82;1.85;;;13.40;78.90;;;;;;5030241;28;20028;-66
2023/01/01 10:36:52;;;;;;;6.15;1.77;;;13.40;79.30;;;;;;5030450;28;20084;-67
2023/01/01 10:39:18;;;;;;;7.68;1.90;;;13.40;80.30;;;;;;5028795;28;20029;-66
2023/01/01 10:41:46;;;;;;;5.32;1.80;;;13.30;81.10;;;;;;5030357;28;20136;-66
2023/01/01 10:44:15;;;;;;;6.85;1.77;;;13.30;81.70;;;;;;5029490;28;20209;-66
2023/01/01 10:46:46;;;;;;;5.75;2.00;;;13.30;82.20;;;;;;5029717;28;20026;-66
2023/01/01 10:49:13;;;;;;;5.75;1.70;;;13.20;82.50;;;;;;5024362;28;20064;-67
2023/01/01 10:51:45;;;;;;;6.22;1.88;;;13.20;82.90;;;;;;5030012;28;20025;-66
2023/01/01 10:54:35;;;;;;;5.47;1.63;;;13.20;82.60;;;;;;5028985;28;20025;-66
2023/01/01 10:57:27;;;;;;;5.93;1.50;;;13.20;82.70;;;;;;5028808;28;20147;-66
2023/01/01 10:59:53;;;;;;;5.80;1.75;;;13.20;82.90;;;;;;5026441;28;20476;-67
2023/01/01 11:02:21;;;;;;;5.97;1.60;;;13.10;83.00;;;;;;5028719;28;20032;-66
2023/01/01 11:04:48;;;;;;;6.88;2.05;;;13.00;83.50;;;;;;5027659;28;20079;-66
2023/01/01 11:07:23;;;;;;;6.10;1.50;;;13.00;83.80;;;;;;5027584;28;20053;-67
2023/01/01 11:09:49;;;;;;;5.28;1.60;;;13.00;84.70;;;;;;5026146;28;20017;-67
2023/01/01 11:12:23;;;;;;;6.03;1.77;;;13.00;84.30;;;;;;5029552;28;20712;-66
2023/01/01 11:14:58;;;;;;;6.20;1.50;;;13.00;84.40;;;;;;5027624;28;20025;-67
2023/01/01 11:17:32;;;;;;;5.70;1.40;;;13.00;84.50;;;;;;5026270;28;20549;-67
2023/01/01 11:19:59;;;;;;;5.65;1.90;;;13.00;84.70;;;;;;5027298;28;20035;-67
2023/01/01 11:22:51;;;;;;;4.70;1.50;;;13.00;85.00;;;;;;5027718;28;20025;-67
2023/01/01 11:25:17;;;;;;;6.57;1.52;;;13.00;85.00;;;;;;5026814;28;20029;-66
2023/01/01 11:27:42;;;;;;;4.68;1.60;;;13.00;85.00;;;;;;5027977;28;20029;-67
2023/01/01 11:30:26;;;;;;;6.18;1.80;;;13.00;85.00;;;;;;5027488;28;20079;-67
2023/01/01 11:33:02;;;;;;;4.50;1.60;;;13.10;85.00;;;;;;5027575;28;20105;-67
2023/01/01 11:35:48;;;;;;;4.35;1.50;;;13.10;85.00;;;;;;5026735;28;20145;-65
2023/01/01 11:38:19;;;;;;;4.35;1.88;;;13.10;85.10;;;;;;5027509;28;20116;-66
2023/01/01 11:40:48;;;;;;;7.18;1.85;;;13.10;85.10;;;;;;5026245;28;20033;-66
2023/01/01 11:43:23;;;;;;;5.28;2.13;;;13.20;85.00;;;;;;5026247;28;20017;-66
2023/01/01 11:45:50;;;;;;;7.72;2.20;;;13.20;85.10;;;;;;5026046;28;20439;-67
2023/01/01 11:48:18;;;;;;;6.20;2.00;;;13.20;85.20;;;;;;5024645;28;20407;-66
2023/01/01 11:50:55;;;;;;;5.85;2.30;;;13.20;85.20;;;;;;5023373;28;20060;-66
2023/01/01 11:53:21;;;;;;;5.07;2.10;;;13.20;85.20;;;;;;5027947;28;20373;-67
2023/01/01 11:55:49;;;;;;;4.20;1.70;;;13.30;85.20;;;;;;5026478;28;20068;-66
2023/01/01 11:58:36;;;;;;;6.15;2.08;;;13.40;85.20;;;;;;5027055;28;20038;-66
2023/01/01 12:01:25;;;;;;;7.20;2.75;;;13.40;85.30;;;;;;5026186;28;20083;-68
2023/01/01 12:03:54;;;;;;;7.13;2.30;;;13.40;85.30;;;;;;5027371;28;20559;-67
2023/01/01 12:06:31;;;;;;;4.25;2.15;;;13.40;85.60;;;;;;5027089;28;20040;-67
2023/01/01 12:09:16;;;;;;;7.63;2.55;;;13.40;85.60;;;;;;5024907;28;20527;-66
2023/01/01 12:11:45;;;;;;;7.07;2.08;;;13.50;85.60;;;;;;5025702;28;20030;-66
2023/01/01 12:14:22;;;;;;;4.32;2.47;;;13.50;85.40;;;;;;5027240;28;20459;-66
2023/01/01 12:16:58;;;;;;;10.32;4.05;;;13.60;85.50;;;;;;5027422;28;20527;-67
2023/01/01 12:19:32;;;;;;;9.68;3.80;;;13.60;85.50;;;;;;5027278;28;20048;-67
2023/01/01 12:21:59;;;;;;;5.10;2.60;;;13.60;85.60;;;;;;5023077;28;20072;-67
2023/01/01 12:24:33;;;;;;;8.27;3.30;;;13.60;85.70;;;;;;5025983;28;20025;-67
2023/01/01 12:27:16;;;;;;;7.18;3.33;;;13.60;85.80;;;;;;5025993;28;20075;-66
2023/01/01 12:29:42;;;;;;;7.97;3.65;;;13.70;85.80;;;;;;5024688;28;20097;-66
2023/01/01 12:32:13;;;;;;;7.40;3.22;;;13.70;85.90;;;;;;5027919;28;20128;-66
2023/01/01 12:35:00;;;;;;;6.13;2.97;;;13.70;85.90;;;;;;5023291;28;20034;-67
2023/01/01 12:37:47;;;;;;;5.75;2.80;;;13.80;85.90;;;;;;5027538;28;20068;-66
2023/01/01 12:40:28;;;;;;;8.43;3.35;;;14.00;85.90;;;;;;5026466;28;20033;-67
2023/01/01 12:43:04;;;;;;;7.72;3.03;;;14.80;84.10;;;;;;5027214;28;20029;-66
2023/01/01 12:45:48;;;;;;;8.93;3.17;;;15.40;82.80;;;;;;5027019;28;20030;-66
2023/01/01 12:48:33;;;;;;;8.80;3.40;;;15.90;80.80;;;;;;5028142;28;20046;-67
2023/01/01 12:51:20;;;;;;;6.15;2.70;;;15.80;79.40;;;;;;5027112;28;20037;-67
2023/01/01 12:54:24;;;;;;;8.65;3.08;;;15.60;79.80;;;;;;5026642;28;20033;-66
2023/01/01 12:57:05;;;;;;;8.98;2.95;;;15.50;79.60;;;;;;5026206;28;20033;-67
2023/01/01 12:59:38;;;;;;;7.03;2.70;;;15.20;79.70;;;;;;5026218;28;20029;-67
2023/01/01 13:02:19;;;;;;;9.68;2.83;;;15.00;80.00;;;;;;5026550;28;20029;-66
2023/01/01 13:04:48;;;;;;;6.63;2.72;;;14.80;80.30;;;;;;5027835;28;20151;-67